createdAt,value
2018-09-03T06:48:14.140Z,56.13
2018-09-03T06:50:44.574Z,54.97
2018-09-03T06:53:15.591Z,53.43
2018-09-03T06:55:46.850Z,51.73
2018-09-03T06:58:17.442Z,52.57
2018-09-03T07:00:50.120Z,45.30
2018-09-03T07:03:21.412Z,43.80
2018-09-03T07:19:55.057Z,37.67
2018-09-03T07:22:26.120Z,32.00
2018-09-03T07:24:56.898Z,34.40
2018-09-03T07:27:28.626Z,27.35
2018-09-03T07:30:00.532Z,26.97
2018-09-03T07:32:31.591Z,29.63
2018-09-03T07:35:02.609Z,30.40
2018-09-03T07:37:34.503Z,29.87
2018-09-03T07:40:06.894Z,30.27
2018-09-03T07:42:38.014Z,29.48
2018-09-03T07:45:09.124Z,29.50
2018-09-03T07:55:34.663Z,34.78
2018-09-03T07:58:06.728Z,34.03
2018-09-03T08:00:38.026Z,31.87
2018-09-03T08:03:09.290Z,30.32
2018-09-03T08:05:41.130Z,29.00
2018-09-03T08:08:12.360Z,32.13
2018-09-03T08:10:43.548Z,27.90
2018-09-03T08:13:19.992Z,29.10
2018-09-03T08:15:51.927Z,27.95
2018-09-03T08:18:23.003Z,28.25
2018-09-03T08:20:54.077Z,26.30
2018-09-03T08:23:25.783Z,29.10
2018-09-03T08:25:57.432Z,28.50
2018-09-03T08:28:28.628Z,29.23
2018-09-03T08:30:59.824Z,26.87
2018-09-03T08:33:31.408Z,30.82
2018-09-03T08:36:04.293Z,28.30
2018-09-03T08:38:34.997Z,26.62
2018-09-03T08:41:06.252Z,25.72
2018-09-03T08:43:38.119Z,24.82
2018-09-03T08:46:09.755Z,24.92
2018-09-03T08:48:40.737Z,26.30
2018-09-03T08:51:12.141Z,25.43
2018-09-03T08:53:44.195Z,24.65
2018-09-03T08:56:15.461Z,23.70
2018-09-03T08:58:46.489Z,22.90
2018-09-03T09:01:17.559Z,22.77
2018-09-03T09:03:49.503Z,22.65
2018-09-03T09:06:20.651Z,23.15
2018-09-03T09:08:51.867Z,22.62
2018-09-03T09:11:23.792Z,22.73
2018-09-03T09:13:55.565Z,22.95
2018-09-03T09:16:26.595Z,24.10
2018-09-03T09:18:57.578Z,24.23
2018-09-03T09:21:29.418Z,25.75
2018-09-03T09:24:01.071Z,25.60
2018-09-03T09:26:33.564Z,25.43
2018-09-03T09:29:04.652Z,26.15
2018-09-03T09:31:37.379Z,27.00
2018-09-03T09:34:08.753Z,26.90
2018-09-03T09:36:39.915Z,27.30
2018-09-03T09:39:11.255Z,25.92
2018-09-03T09:41:43.018Z,26.25
2018-09-03T09:44:14.798Z,26.17
2018-09-03T09:46:45.845Z,23.83
2018-09-03T09:49:17.568Z,24.15
2018-09-03T09:51:49.706Z,24.67
2018-09-03T09:54:20.814Z,27.40
2018-09-03T09:56:51.766Z,22.40
2018-09-03T09:59:23.867Z,21.33
2018-09-03T10:01:55.482Z,20.55
2018-09-03T10:04:26.588Z,21.30
2018-09-03T10:06:57.774Z,22.02
2018-09-03T10:09:29.604Z,21.57
2018-09-03T10:12:01.913Z,22.17
2018-09-03T10:14:33.084Z,21.33
2018-09-03T10:17:04.249Z,21.85
2018-09-03T10:19:40.974Z,20.37
2018-09-03T10:22:13.094Z,20.97
2018-09-03T10:24:44.200Z,20.50
2018-09-03T10:27:16.091Z,21.57
2018-09-03T10:29:47.874Z,21.57
2018-09-03T10:32:20.136Z,22.50
2018-09-03T10:34:51.408Z,23.35
2018-09-03T10:37:23.197Z,22.07
2018-09-03T10:39:54.980Z,21.20
2018-09-03T10:42:27.543Z,21.42
2018-09-03T10:44:58.667Z,20.82
2018-09-03T10:47:30.640Z,21.30
2018-09-03T10:50:02.607Z,20.75
2018-09-03T10:52:33.764Z,20.32
2018-09-03T10:55:06.381Z,20.20
2018-09-03T10:57:38.265Z,21.27
2018-09-03T11:00:09.668Z,21.52
2018-09-03T11:02:40.621Z,21.57
2018-09-03T11:05:12.202Z,23.30
2018-09-03T11:07:44.657Z,22.85
2018-09-03T11:10:16.077Z,24.07
2018-09-03T11:12:47.230Z,24.20
2018-09-03T11:15:19.332Z,25.00
2018-09-03T11:17:51.066Z,25.55
2018-09-03T11:20:30.210Z,26.57
2018-09-03T11:23:01.346Z,26.42
2018-09-03T11:25:34.318Z,26.50
2018-09-03T11:28:06.207Z,25.12
2018-09-03T11:30:37.051Z,25.80
2018-09-03T11:33:08.295Z,23.30
2018-09-03T11:35:40.217Z,24.63
2018-09-03T11:38:11.918Z,24.52
2018-09-03T11:40:42.782Z,23.95
2018-09-03T11:43:14.083Z,23.98
2018-09-03T11:45:45.559Z,22.42
2018-09-03T11:48:16.450Z,20.50
2018-09-03T11:50:47.443Z,20.55
2018-09-03T11:53:19.236Z,22.20
2018-09-03T11:55:50.844Z,19.82
2018-09-03T11:58:23.407Z,20.10
2018-09-03T12:00:58.602Z,18.67
2018-09-03T12:03:30.193Z,19.30
2018-09-03T12:06:02.002Z,19.55
2018-09-03T12:08:32.917Z,20.02
2018-09-03T12:11:04.114Z,20.23
2018-09-03T12:13:36.029Z,21.80
2018-09-03T12:16:15.759Z,19.70
2018-09-03T12:18:47.243Z,21.87
2018-09-03T12:21:18.904Z,22.02
2018-09-03T12:23:50.781Z,20.80
2018-09-03T12:26:21.730Z,21.85
2018-09-03T12:28:52.654Z,21.97
2018-09-03T12:31:24.395Z,20.90
2018-09-03T12:33:56.189Z,24.37
2018-09-03T12:36:27.254Z,27.13
2018-09-03T12:38:58.255Z,22.48
2018-09-03T12:41:29.955Z,22.95
2018-09-03T12:44:02.130Z,22.35
2018-09-03T12:46:33.204Z,23.98
2018-09-03T12:49:04.058Z,24.70
2018-09-03T12:51:35.800Z,22.07
2018-09-03T12:54:07.594Z,23.07
2018-09-03T12:56:38.466Z,20.88
2018-09-03T12:59:11.092Z,21.85
2018-09-03T13:01:42.899Z,21.97
2018-09-03T13:04:14.474Z,24.35
2018-09-03T13:06:45.813Z,22.07
2018-09-03T13:09:17.745Z,21.65
2018-09-03T13:11:49.861Z,22.10
2018-09-03T13:14:21.319Z,22.05
2018-09-03T13:16:52.411Z,22.00
2018-09-03T13:19:31.886Z,21.33
2018-09-03T13:22:03.522Z,22.85
2018-09-03T13:24:34.678Z,22.20
2018-09-03T13:27:06.499Z,21.85
2018-09-03T13:29:38.274Z,23.45
2018-09-03T13:32:13.613Z,21.77
2018-09-03T13:34:46.325Z,21.37
2018-09-03T13:37:19.812Z,21.65
2018-09-03T13:39:51.643Z,22.40
2018-09-03T13:42:22.742Z,22.70
2018-09-03T13:44:54.432Z,21.77
2018-09-03T13:47:27.077Z,21.85
2018-09-03T13:49:58.945Z,22.27
2018-09-03T13:52:31.135Z,21.07
2018-09-03T13:55:02.601Z,21.17
2018-09-03T13:57:35.359Z,21.68
2018-09-03T14:00:09.998Z,20.50
2018-09-03T14:02:48.256Z,21.60
2018-09-03T14:05:20.446Z,21.35
2018-09-03T14:07:54.671Z,22.70
2018-09-03T14:10:26.689Z,21.77
2018-09-03T14:12:58.953Z,21.33
2018-09-03T14:15:30.617Z,20.17
2018-09-03T14:18:06.831Z,20.32
2018-09-03T14:20:37.879Z,21.97
2018-09-03T14:23:08.813Z,20.70
2018-09-03T14:25:40.585Z,20.02
2018-09-03T14:28:11.791Z,19.15
2018-09-03T14:30:42.789Z,20.95
2018-09-03T14:33:13.725Z,20.25
2018-09-03T14:35:46.146Z,21.12
2018-09-03T14:38:17.236Z,19.73
2018-09-03T14:40:48.169Z,27.50
2018-09-03T14:43:19.706Z,21.25
2018-09-03T14:45:51.626Z,22.32
2018-09-03T14:48:24.068Z,27.82
2018-09-03T14:50:55.023Z,29.35
2018-09-03T14:53:26.983Z,21.12
2018-09-03T14:55:58.839Z,21.07
2018-09-03T14:58:29.881Z,20.72
2018-09-03T15:01:00.996Z,28.70
2018-09-03T15:03:33.111Z,20.12
2018-09-03T15:06:06.599Z,20.15
2018-09-03T15:08:38.092Z,21.02
2018-09-03T15:11:09.343Z,20.15
2018-09-03T15:13:41.812Z,21.05
2018-09-03T15:16:13.075Z,19.52
2018-09-03T15:18:44.029Z,19.60
2018-09-03T15:21:15.132Z,19.30
2018-09-03T15:23:47.187Z,18.45
2018-09-03T15:26:20.124Z,18.77
2018-09-03T15:28:51.160Z,17.62
2018-09-03T15:31:23.652Z,17.32
2018-09-03T15:33:55.942Z,18.45
2018-09-03T15:36:28.211Z,18.35
2018-09-03T15:38:59.340Z,19.92
2018-09-03T15:41:31.188Z,19.80
2018-09-03T15:44:02.976Z,19.98
2018-09-03T15:46:34.147Z,21.02
2018-09-03T15:49:06.678Z,23.12
2018-09-03T15:51:38.970Z,20.77
2018-09-03T15:54:11.051Z,19.32
2018-09-03T15:56:42.239Z,20.37
2018-09-03T15:59:13.129Z,22.30
2018-09-03T16:01:44.975Z,19.98
2018-09-03T16:04:17.637Z,20.30
2018-09-03T16:06:48.586Z,18.10
2018-09-03T16:09:20.592Z,19.52
2018-09-03T16:11:52.612Z,19.32
2018-09-03T16:14:23.616Z,19.15
2018-09-03T16:16:54.806Z,20.72
2018-09-03T16:19:26.468Z,18.57
2018-09-03T16:21:58.507Z,19.32
2018-09-03T16:24:31.860Z,19.57
2018-09-03T16:27:04.184Z,19.25
2018-09-03T16:29:35.962Z,19.10
2018-09-03T16:32:07.493Z,18.77
2018-09-03T16:34:38.562Z,18.85
2018-09-03T16:37:09.787Z,18.82
2018-09-03T16:39:41.342Z,19.77
2018-09-03T16:42:13.180Z,19.02
2018-09-03T16:44:44.002Z,19.45
2018-09-03T16:47:16.630Z,19.60
2018-09-03T16:49:48.220Z,18.65
2018-09-03T16:52:20.432Z,19.37
2018-09-03T16:54:51.648Z,17.80
2018-09-03T16:57:23.421Z,19.25
2018-09-03T16:59:57.064Z,18.35
2018-09-03T17:02:29.265Z,19.10
2018-09-03T17:05:01.437Z,19.07
2018-09-03T17:07:34.209Z,23.35
2018-09-03T17:10:06.448Z,21.12
2018-09-03T17:12:37.641Z,22.42
2018-09-03T17:15:08.707Z,22.42
2018-09-03T17:17:40.411Z,22.45
2018-09-03T17:20:13.096Z,21.70
2018-09-03T17:22:44.539Z,70.35
2018-09-03T17:25:15.556Z,59.75
2018-09-03T17:27:47.584Z,39.10
2018-09-03T17:30:20.529Z,27.80
2018-09-03T17:32:51.641Z,23.70
2018-09-03T17:35:23.254Z,22.10
2018-09-03T17:37:55.178Z,23.62
2018-09-03T17:40:26.328Z,24.07
2018-09-03T17:42:57.833Z,23.98
2018-09-03T17:45:29.523Z,23.00
2018-09-03T17:48:01.356Z,23.95
2018-09-03T17:50:32.191Z,24.70
2018-09-03T17:53:03.246Z,25.80
2018-09-03T17:55:35.144Z,24.65
2018-09-03T17:58:07.191Z,25.25
2018-09-03T18:00:38.299Z,28.87
2018-09-03T18:03:11.197Z,27.80
2018-09-03T18:05:42.952Z,25.95
2018-09-03T18:08:15.399Z,29.20
2018-09-03T18:10:46.662Z,29.32
2018-09-03T18:13:19.365Z,26.05
2018-09-03T18:15:52.027Z,28.20
2018-09-03T18:18:23.300Z,27.62
2018-09-03T18:20:54.463Z,27.20
2018-09-03T18:23:27.191Z,28.73
2018-09-03T18:25:58.910Z,27.80
2018-09-03T18:28:30.040Z,26.48
2018-09-03T18:31:01.460Z,26.30
2018-09-03T18:33:34.892Z,27.40
2018-09-03T18:36:06.933Z,29.40
2018-09-03T18:38:38.052Z,31.52
2018-09-03T18:41:11.378Z,29.98
2018-09-03T18:43:43.193Z,31.68
2018-09-03T18:46:15.076Z,30.50
2018-09-03T18:48:46.001Z,28.40
2018-09-03T18:51:17.556Z,29.37
2018-09-03T18:53:49.742Z,28.52
2018-09-03T18:56:20.932Z,33.83
2018-09-03T18:58:51.898Z,29.95
2018-09-03T19:01:24.485Z,29.55
2018-09-03T19:03:56.567Z,28.95
2018-09-03T19:06:27.186Z,28.40
2018-09-03T19:08:57.661Z,28.13
2018-09-03T19:11:28.778Z,28.97
2018-09-03T19:14:00.422Z,30.92
2018-09-03T19:16:30.896Z,29.65
